sensor_id;sensor_type;location;lat;lon;timestamp;P1;durP1;ratioP1;P2;durP2;ratioP2
69256;SDS011;56376;53.356;-1.748;2023-03-31T00:01:26;8.68;;;3.28;;
69256;SDS011;56376;53.356;-1.748;2023-03-31T00:03:55;8.50;;;2.97;;
69256;SDS011;56376;53.356;-1.748;2023-03-31T00:06:26;9.02;;;2.83;;
69256;SDS011;56376;53.356;-1.748;2023-03-31T00:08:52;5.00;;;2.08;;
69256;SDS011;56376;53.356;-1.748;2023-03-31T00:11:19;7.40;;;2.25;;
69256;SDS011;56376;53.356;-1.748;2023-03-31T00:13:46;7.95;;;2.42;;
69256;SDS011;56376;53.356;-1.748;2023-03-31T00:16:11;10.13;;;3.15;;
69256;SDS011;56376;53.356;-1.748;2023-03-31T00:18:37;7.80;;;2.45;;
69256;SDS011;56376;53.356;-1.748;2023-03-31T00:21:09;8.32;;;2.83;;
69256;SDS011;56376;53.356;-1.748;2023-03-31T00:23:48;7.60;;;2.72;;
69256;SDS011;56376;53.356;-1.748;2023-03-31T00:26:21;6.57;;;2.17;;
69256;SDS011;56376;53.356;-1.748;2023-03-31T00:28:47;6.50;;;1.88;;
69256;SDS011;56376;53.356;-1.748;2023-03-31T00:31:13;5.43;;;2.20;;
69256;SDS011;56376;53.356;-1.748;2023-03-31T00:33:39;6.97;;;2.53;;
69256;SDS011;56376;53.356;-1.748;2023-03-31T00:36:05;9.95;;;2.30;;
69256;SDS011;56376;53.356;-1.748;2023-03-31T00:38:31;9.05;;;2.42;;
69256;SDS011;56376;53.356;-1.748;2023-03-31T00:40:58;6.55;;;2.70;;
69256;SDS011;56376;53.356;-1.748;2023-03-31T00:43:31;6.32;;;1.98;;
69256;SDS011;56376;53.356;-1.748;2023-03-31T00:48:44;3.33;;;2.00;;
69256;SDS011;56376;53.356;-1.748;2023-03-31T00:51:14;3.03;;;1.60;;
69256;SDS011;56376;53.356;-1.748;2023-03-31T00:53:40;5.75;;;1.48;;
69256;SDS011;56376;53.356;-1.748;2023-03-31T00:56:08;4.82;;;1.55;;
69256;SDS011;56376;53.356;-1.748;2023-03-31T00:58:38;4.45;;;1.60;;
69256;SDS011;56376;53.356;-1.748;2023-03-31T01:01:08;3.55;;;1.95;;
69256;SDS011;56376;53.356;-1.748;2023-03-31T01:03:38;4.22;;;1.60;;
69256;SDS011;56376;53.356;-1.748;2023-03-31T01:06:06;3.58;;;1.58;;
69256;SDS011;56376;53.356;-1.748;2023-03-31T01:08:34;3.83;;;1.98;;
69256;SDS011;56376;53.356;-1.748;2023-03-31T01:11:02;4.03;;;1.55;;
69256;SDS011;56376;53.356;-1.748;2023-03-31T01:13:30;5.65;;;1.50;;
69256;SDS011;56376;53.356;-1.748;2023-03-31T01:15:58;4.03;;;1.75;;
69256;SDS011;56376;53.356;-1.748;2023-03-31T01:18:23;4.10;;;1.52;;
69256;SDS011;56376;53.356;-1.748;2023-03-31T01:37:35;4.93;;;1.67;;
69256;SDS011;56376;53.356;-1.748;2023-03-31T01:45:59;3.80;;;1.83;;
69256;SDS011;56376;53.356;-1.748;2023-03-31T01:54:08;6.70;;;1.77;;
69256;SDS011;56376;53.356;-1.748;2023-03-31T01:56:58;6.50;;;2.17;;
69256;SDS011;56376;53.356;-1.748;2023-03-31T01:59:26;4.72;;;2.20;;
69256;SDS011;56376;53.356;-1.748;2023-03-31T02:01:57;2.88;;;1.65;;
69256;SDS011;56376;53.356;-1.748;2023-03-31T02:04:32;7.82;;;2.60;;
69256;SDS011;56376;53.356;-1.748;2023-03-31T02:07:03;6.50;;;2.05;;
69256;SDS011;56376;53.356;-1.748;2023-03-31T02:09:55;6.90;;;2.97;;
69256;SDS011;56376;53.356;-1.748;2023-03-31T02:12:25;6.28;;;2.60;;
69256;SDS011;56376;53.356;-1.748;2023-03-31T02:14:52;4.72;;;1.48;;
69256;SDS011;56376;53.356;-1.748;2023-03-31T02:17:21;4.32;;;1.90;;
69256;SDS011;56376;53.356;-1.748;2023-03-31T02:19:54;5.07;;;1.80;;
69256;SDS011;56376;53.356;-1.748;2023-03-31T02:22:23;7.70;;;2.30;;
69256;SDS011;56376;53.356;-1.748;2023-03-31T02:24:51;6.28;;;2.28;;
69256;SDS011;56376;53.356;-1.748;2023-03-31T02:27:30;4.72;;;2.05;;
69256;SDS011;56376;53.356;-1.748;2023-03-31T02:29:59;6.60;;;2.30;;
69256;SDS011;56376;53.356;-1.748;2023-03-31T02:35:04;5.07;;;2.08;;
69256;SDS011;56376;53.356;-1.748;2023-03-31T02:37:32;4.53;;;2.35;;
69256;SDS011;56376;53.356;-1.748;2023-03-31T02:39:58;5.93;;;2.58;;
69256;SDS011;56376;53.356;-1.748;2023-03-31T02:42:29;3.75;;;2.42;;
69256;SDS011;56376;53.356;-1.748;2023-03-31T02:45:00;6.78;;;2.25;;
69256;SDS011;56376;53.356;-1.748;2023-03-31T02:47:27;5.32;;;2.20;;
69256;SDS011;56376;53.356;-1.748;2023-03-31T02:49:53;7.93;;;2.70;;
69256;SDS011;56376;53.356;-1.748;2023-03-31T02:52:30;4.90;;;2.42;;
69256;SDS011;56376;53.356;-1.748;2023-03-31T03:06:49;7.32;;;2.85;;
69256;SDS011;56376;53.356;-1.748;2023-03-31T03:10:10;6.70;;;2.42;;
69256;SDS011;56376;53.356;-1.748;2023-03-31T03:15:07;8.63;;;3.00;;
69256;SDS011;56376;53.356;-1.748;2023-03-31T03:17:42;6.43;;;2.70;;
69256;SDS011;56376;53.356;-1.748;2023-03-31T03:20:10;5.32;;;3.38;;
69256;SDS011;56376;53.356;-1.748;2023-03-31T03:22:37;9.23;;;3.22;;
69256;SDS011;56376;53.356;-1.748;2023-03-31T03:25:03;7.03;;;2.75;;
69256;SDS011;56376;53.356;-1.748;2023-03-31T03:27:30;5.35;;;2.53;;
69256;SDS011;56376;53.356;-1.748;2023-03-31T03:29:56;4.22;;;2.20;;
69256;SDS011;56376;53.356;-1.748;2023-03-31T03:32:22;8.38;;;2.58;;
69256;SDS011;56376;53.356;-1.748;2023-03-31T03:34:48;5.80;;;2.30;;
69256;SDS011;56376;53.356;-1.748;2023-03-31T03:37:14;2.78;;;1.67;;
69256;SDS011;56376;53.356;-1.748;2023-03-31T03:39:39;3.90;;;1.65;;
69256;SDS011;56376;53.356;-1.748;2023-03-31T03:42:04;3.08;;;1.55;;
69256;SDS011;56376;53.356;-1.748;2023-03-31T03:44:30;3.03;;;1.60;;
69256;SDS011;56376;53.356;-1.748;2023-03-31T03:46:55;1.65;;;1.27;;
69256;SDS011;56376;53.356;-1.748;2023-03-31T03:49:21;1.67;;;1.38;;
69256;SDS011;56376;53.356;-1.748;2023-03-31T03:51:46;2.17;;;1.10;;
69256;SDS011;56376;53.356;-1.748;2023-03-31T03:54:12;1.67;;;1.27;;
69256;SDS011;56376;53.356;-1.748;2023-03-31T03:56:37;2.05;;;1.27;;
69256;SDS011;56376;53.356;-1.748;2023-03-31T03:59:02;3.30;;;1.60;;
69256;SDS011;56376;53.356;-1.748;2023-03-31T04:01:28;2.90;;;1.20;;
69256;SDS011;56376;53.356;-1.748;2023-03-31T04:03:53;1.95;;;1.33;;
69256;SDS011;56376;53.356;-1.748;2023-03-31T04:06:19;1.77;;;1.40;;
69256;SDS011;56376;53.356;-1.748;2023-03-31T04:08:44;1.77;;;1.20;;
69256;SDS011;56376;53.356;-1.748;2023-03-31T04:11:16;1.63;;;1.40;;
69256;SDS011;56376;53.356;-1.748;2023-03-31T04:13:43;2.88;;;1.75;;
69256;SDS011;56376;53.356;-1.748;2023-03-31T04:16:09;2.55;;;2.00;;
69256;SDS011;56376;53.356;-1.748;2023-03-31T04:18:36;3.22;;;2.00;;
69256;SDS011;56376;53.356;-1.748;2023-03-31T04:21:06;3.28;;;2.42;;
69256;SDS011;56376;53.356;-1.748;2023-03-31T04:23:36;4.22;;;2.40;;
69256;SDS011;56376;53.356;-1.748;2023-03-31T04:26:07;2.40;;;2.20;;
69256;SDS011;56376;53.356;-1.748;2023-03-31T04:28:34;2.97;;;2.13;;
69256;SDS011;56376;53.356;-1.748;2023-03-31T04:31:01;3.67;;;2.72;;
69256;SDS011;56376;53.356;-1.748;2023-03-31T04:33:27;3.15;;;2.85;;
69256;SDS011;56376;53.356;-1.748;2023-03-31T04:35:53;3.30;;;2.25;;
69256;SDS011;56376;53.356;-1.748;2023-03-31T04:38:19;2.55;;;1.95;;
69256;SDS011;56376;53.356;-1.748;2023-03-31T04:40:47;2.17;;;1.98;;
69256;SDS011;56376;53.356;-1.748;2023-03-31T04:43:14;1.52;;;1.42;;
69256;SDS011;56376;53.356;-1.748;2023-03-31T04:45:41;1.75;;;1.20;;
69256;SDS011;56376;53.356;-1.748;2023-03-31T04:48:07;0.82;;;0.82;;
69256;SDS011;56376;53.356;-1.748;2023-03-31T04:50:32;0.68;;;0.68;;
69256;SDS011;56376;53.356;-1.748;2023-03-31T04:52:58;0.52;;;0.52;;
69256;SDS011;56376;53.356;-1.748;2023-03-31T04:55:24;1.05;;;0.50;;
69256;SDS011;56376;53.356;-1.748;2023-03-31T04:57:49;1.05;;;0.57;;
69256;SDS011;56376;53.356;-1.748;2023-03-31T05:00:15;0.40;;;0.40;;
69256;SDS011;56376;53.356;-1.748;2023-03-31T05:02:42;0.47;;;0.47;;
69256;SDS011;56376;53.356;-1.748;2023-03-31T05:05:07;1.17;;;0.40;;
69256;SDS011;56376;53.356;-1.748;2023-03-31T05:07:33;0.50;;;0.43;;
69256;SDS011;56376;53.356;-1.748;2023-03-31T05:09:58;0.95;;;0.50;;
69256;SDS011;56376;53.356;-1.748;2023-03-31T05:12:23;0.50;;;0.50;;
69256;SDS011;56376;53.356;-1.748;2023-03-31T05:14:49;0.60;;;0.60;;
69256;SDS011;56376;53.356;-1.748;2023-03-31T05:17:15;0.68;;;0.68;;
69256;SDS011;56376;53.356;-1.748;2023-03-31T05:19:41;1.30;;;0.60;;
69256;SDS011;56376;53.356;-1.748;2023-03-31T05:22:07;1.10;;;0.85;;
69256;SDS011;56376;53.356;-1.748;2023-03-31T05:24:32;1.25;;;1.15;;
69256;SDS011;56376;53.356;-1.748;2023-03-31T05:26:58;1.20;;;1.10;;
69256;SDS011;56376;53.356;-1.748;2023-03-31T05:29:23;1.27;;;1.17;;
69256;SDS011;56376;53.356;-1.748;2023-03-31T05:31:49;1.30;;;1.20;;
69256;SDS011;56376;53.356;-1.748;2023-03-31T05:34:14;1.33;;;1.23;;
69256;SDS011;56376;53.356;-1.748;2023-03-31T05:36:40;1.80;;;1.30;;
69256;SDS011;56376;53.356;-1.748;2023-03-31T05:39:07;1.63;;;1.52;;
69256;SDS011;56376;53.356;-1.748;2023-03-31T05:41:33;1.15;;;0.95;;
69256;SDS011;56376;53.356;-1.748;2023-03-31T05:43:58;1.00;;;0.85;;
69256;SDS011;56376;53.356;-1.748;2023-03-31T05:46:23;1.20;;;1.10;;
69256;SDS011;56376;53.356;-1.748;2023-03-31T05:48:50;1.58;;;1.40;;
69256;SDS011;56376;53.356;-1.748;2023-03-31T05:51:16;1.35;;;1.08;;
69256;SDS011;56376;53.356;-1.748;2023-03-31T05:53:41;1.17;;;1.05;;
69256;SDS011;56376;53.356;-1.748;2023-03-31T05:56:07;1.23;;;1.10;;
69256;SDS011;56376;53.356;-1.748;2023-03-31T05:58:33;1.80;;;1.35;;
69256;SDS011;56376;53.356;-1.748;2023-03-31T06:03:33;1.30;;;1.15;;
69256;SDS011;56376;53.356;-1.748;2023-03-31T06:06:00;1.33;;;1.17;;
69256;SDS011;56376;53.356;-1.748;2023-03-31T06:08:26;0.80;;;0.80;;
69256;SDS011;56376;53.356;-1.748;2023-03-31T06:10:53;1.10;;;1.00;;
69256;SDS011;56376;53.356;-1.748;2023-03-31T06:13:18;1.10;;;1.00;;
69256;SDS011;56376;53.356;-1.748;2023-03-31T06:15:51;1.20;;;1.00;;
69256;SDS011;56376;53.356;-1.748;2023-03-31T06:18:23;1.30;;;1.20;;
69256;SDS011;56376;53.356;-1.748;2023-03-31T06:20:52;2.80;;;1.17;;
69256;SDS011;56376;53.356;-1.748;2023-03-31T06:23:18;1.55;;;1.05;;
69256;SDS011;56376;53.356;-1.748;2023-03-31T06:25:43;0.90;;;0.90;;
69256;SDS011;56376;53.356;-1.748;2023-03-31T06:28:09;0.93;;;0.85;;
69256;SDS011;56376;53.356;-1.748;2023-03-31T06:30:34;1.30;;;1.20;;
69256;SDS011;56376;53.356;-1.748;2023-03-31T06:33:00;0.93;;;0.90;;
69256;SDS011;56376;53.356;-1.748;2023-03-31T06:35:25;1.27;;;1.17;;
69256;SDS011;56376;53.356;-1.748;2023-03-31T06:37:51;1.42;;;1.33;;
69256;SDS011;56376;53.356;-1.748;2023-03-31T06:40:16;1.50;;;1.30;;
69256;SDS011;56376;53.356;-1.748;2023-03-31T06:42:42;1.60;;;1.30;;
69256;SDS011;56376;53.356;-1.748;2023-03-31T06:45:08;1.30;;;1.20;;
69256;SDS011;56376;53.356;-1.748;2023-03-31T06:47:33;1.20;;;1.10;;
69256;SDS011;56376;53.356;-1.748;2023-03-31T06:49:59;1.05;;;0.98;;
69256;SDS011;56376;53.356;-1.748;2023-03-31T06:52:24;1.70;;;1.33;;
69256;SDS011;56376;53.356;-1.748;2023-03-31T06:54:49;2.25;;;1.48;;
69256;SDS011;56376;53.356;-1.748;2023-03-31T06:57:15;1.80;;;1.50;;
69256;SDS011;56376;53.356;-1.748;2023-03-31T06:59:40;3.42;;;1.90;;
69256;SDS011;56376;53.356;-1.748;2023-03-31T07:02:06;2.95;;;1.80;;
69256;SDS011;56376;53.356;-1.748;2023-03-31T07:04:31;1.67;;;1.23;;
69256;SDS011;56376;53.356;-1.748;2023-03-31T07:06:57;1.55;;;1.45;;
69256;SDS011;56376;53.356;-1.748;2023-03-31T07:09:23;2.08;;;1.70;;
69256;SDS011;56376;53.356;-1.748;2023-03-31T07:11:48;1.80;;;1.67;;
69256;SDS011;56376;53.356;-1.748;2023-03-31T07:14:14;2.55;;;2.08;;
69256;SDS011;56376;53.356;-1.748;2023-03-31T07:16:39;2.70;;;2.13;;
69256;SDS011;56376;53.356;-1.748;2023-03-31T07:19:05;3.13;;;2.83;;
69256;SDS011;56376;53.356;-1.748;2023-03-31T07:21:31;10.02;;;8.43;;
69256;SDS011;56376;53.356;-1.748;2023-03-31T07:23:57;14.05;;;10.52;;
69256;SDS011;56376;53.356;-1.748;2023-03-31T07:26:22;11.80;;;7.53;;
69256;SDS011;56376;53.356;-1.748;2023-03-31T07:28:48;7.13;;;6.43;;
69256;SDS011;56376;53.356;-1.748;2023-03-31T07:31:14;9.85;;;8.02;;
69256;SDS011;56376;53.356;-1.748;2023-03-31T07:33:39;12.65;;;11.35;;
69256;SDS011;56376;53.356;-1.748;2023-03-31T07:36:05;11.13;;;9.88;;
69256;SDS011;56376;53.356;-1.748;2023-03-31T07:38:31;8.52;;;6.88;;
69256;SDS011;56376;53.356;-1.748;2023-03-31T07:40:57;7.07;;;6.38;;
69256;SDS011;56376;53.356;-1.748;2023-03-31T07:43:22;5.35;;;4.85;;
69256;SDS011;56376;53.356;-1.748;2023-03-31T07:45:48;4.72;;;4.15;;
69256;SDS011;56376;53.356;-1.748;2023-03-31T07:48:13;4.40;;;4.00;;
69256;SDS011;56376;53.356;-1.748;2023-03-31T07:50:38;6.13;;;5.53;;
69256;SDS011;56376;53.356;-1.748;2023-03-31T07:53:04;5.55;;;5.07;;
69256;SDS011;56376;53.356;-1.748;2023-03-31T07:55:30;5.95;;;4.70;;
69256;SDS011;56376;53.356;-1.748;2023-03-31T07:57:55;5.68;;;5.18;;
69256;SDS011;56376;53.356;-1.748;2023-03-31T08:00:21;4.80;;;4.30;;
69256;SDS011;56376;53.356;-1.748;2023-03-31T08:02:47;18.13;;;9.70;;
69256;SDS011;56376;53.356;-1.748;2023-03-31T08:05:13;13.05;;;8.30;;
69256;SDS011;56376;53.356;-1.748;2023-03-31T08:07:42;17.15;;;8.52;;
69256;SDS011;56376;53.356;-1.748;2023-03-31T08:10:11;9.57;;;5.65;;
69256;SDS011;56376;53.356;-1.748;2023-03-31T08:12:39;9.60;;;4.55;;
69256;SDS011;56376;53.356;-1.748;2023-03-31T08:15:05;11.18;;;4.22;;
69256;SDS011;56376;53.356;-1.748;2023-03-31T08:17:31;19.88;;;6.40;;
69256;SDS011;56376;53.356;-1.748;2023-03-31T08:19:56;10.82;;;4.57;;
69256;SDS011;56376;53.356;-1.748;2023-03-31T08:22:22;3.70;;;2.30;;
69256;SDS011;56376;53.356;-1.748;2023-03-31T08:24:47;2.20;;;1.75;;
69256;SDS011;56376;53.356;-1.748;2023-03-31T08:27:13;2.42;;;1.73;;
69256;SDS011;56376;53.356;-1.748;2023-03-31T08:29:38;3.67;;;3.15;;
69256;SDS011;56376;53.356;-1.748;2023-03-31T08:32:03;2.90;;;2.47;;
69256;SDS011;56376;53.356;-1.748;2023-03-31T08:34:29;3.95;;;2.40;;
69256;SDS011;56376;53.356;-1.748;2023-03-31T08:36:54;4.85;;;3.13;;
69256;SDS011;56376;53.356;-1.748;2023-03-31T08:39:20;2.00;;;1.80;;
69256;SDS011;56376;53.356;-1.748;2023-03-31T08:41:48;1.98;;;1.70;;
69256;SDS011;56376;53.356;-1.748;2023-03-31T08:44:24;3.30;;;2.20;;
69256;SDS011;56376;53.356;-1.748;2023-03-31T08:46:56;6.20;;;3.72;;
69256;SDS011;56376;53.356;-1.748;2023-03-31T08:49:23;2.85;;;2.17;;
69256;SDS011;56376;53.356;-1.748;2023-03-31T08:51:57;2.92;;;1.92;;
69256;SDS011;56376;53.356;-1.748;2023-03-31T08:54:29;2.20;;;1.70;;
69256;SDS011;56376;53.356;-1.748;2023-03-31T08:56:56;3.25;;;1.85;;
69256;SDS011;56376;53.356;-1.748;2023-03-31T08:59:26;3.42;;;1.90;;
69256;SDS011;56376;53.356;-1.748;2023-03-31T09:01:58;1.73;;;1.63;;
69256;SDS011;56376;53.356;-1.748;2023-03-31T09:07:21;2.85;;;2.38;;
69256;SDS011;56376;53.356;-1.748;2023-03-31T09:12:45;2.42;;;2.17;;
69256;SDS011;56376;53.356;-1.748;2023-03-31T09:15:35;4.00;;;3.47;;
69256;SDS011;56376;53.356;-1.748;2023-03-31T09:18:19;4.13;;;3.20;;
69256;SDS011;56376;53.356;-1.748;2023-03-31T09:21:29;2.88;;;2.60;;
69256;SDS011;56376;53.356;-1.748;2023-03-31T09:29:28;2.83;;;2.63;;
69256;SDS011;56376;53.356;-1.748;2023-03-31T09:32:14;3.53;;;3.13;;
69256;SDS011;56376;53.356;-1.748;2023-03-31T09:34:39;5.27;;;4.40;;
69256;SDS011;56376;53.356;-1.748;2023-03-31T09:37:05;4.20;;;3.80;;
69256;SDS011;56376;53.356;-1.748;2023-03-31T09:39:30;5.38;;;4.88;;
69256;SDS011;56376;53.356;-1.748;2023-03-31T09:41:56;6.40;;;5.60;;
69256;SDS011;56376;53.356;-1.748;2023-03-31T09:44:23;6.45;;;5.85;;
69256;SDS011;56376;53.356;-1.748;2023-03-31T09:46:52;7.80;;;5.55;;
69256;SDS011;56376;53.356;-1.748;2023-03-31T09:49:20;5.22;;;4.72;;
69256;SDS011;56376;53.356;-1.748;2023-03-31T09:51:51;5.03;;;4.50;;
69256;SDS011;56376;53.356;-1.748;2023-03-31T09:54:33;5.57;;;4.18;;
69256;SDS011;56376;53.356;-1.748;2023-03-31T09:57:01;4.20;;;3.80;;
69256;SDS011;56376;53.356;-1.748;2023-03-31T09:59:36;4.65;;;4.05;;
69256;SDS011;56376;53.356;-1.748;2023-03-31T10:02:03;3.72;;;3.40;;
69256;SDS011;56376;53.356;-1.748;2023-03-31T10:04:43;4.55;;;3.85;;
69256;SDS011;56376;53.356;-1.748;2023-03-31T10:07:10;3.25;;;2.95;;
69256;SDS011;56376;53.356;-1.748;2023-03-31T10:09:37;4.43;;;3.05;;
69256;SDS011;56376;53.356;-1.748;2023-03-31T10:12:07;3.83;;;3.38;;
69256;SDS011;56376;53.356;-1.748;2023-03-31T10:14:43;2.90;;;2.60;;
69256;SDS011;56376;53.356;-1.748;2023-03-31T10:17:14;3.15;;;2.85;;
69256;SDS011;56376;53.356;-1.748;2023-03-31T10:19:51;3.53;;;2.53;;
69256;SDS011;56376;53.356;-1.748;2023-03-31T10:24:47;3.65;;;3.10;;
69256;SDS011;56376;53.356;-1.748;2023-03-31T10:27:27;4.03;;;3.63;;
69256;SDS011;56376;53.356;-1.748;2023-03-31T10:29:54;4.22;;;3.83;;
69256;SDS011;56376;53.356;-1.748;2023-03-31T10:32:31;3.67;;;3.38;;
69256;SDS011;56376;53.356;-1.748;2023-03-31T10:35:05;3.45;;;3.15;;
69256;SDS011;56376;53.356;-1.748;2023-03-31T10:37:47;3.13;;;2.60;;
69256;SDS011;56376;53.356;-1.748;2023-03-31T10:40:15;3.20;;;2.90;;
69256;SDS011;56376;53.356;-1.748;2023-03-31T10:42:45;3.00;;;2.70;;
69256;SDS011;56376;53.356;-1.748;2023-03-31T10:45:30;9.82;;;4.47;;
69256;SDS011;56376;53.356;-1.748;2023-03-31T10:48:01;8.95;;;4.40;;
69256;SDS011;56376;53.356;-1.748;2023-03-31T10:50:34;5.75;;;3.47;;
69256;SDS011;56376;53.356;-1.748;2023-03-31T10:53:04;4.45;;;2.67;;
69256;SDS011;56376;53.356;-1.748;2023-03-31T10:55:38;1.92;;;1.70;;
69256;SDS011;56376;53.356;-1.748;2023-03-31T11:00:56;1.40;;;1.30;;
69256;SDS011;56376;53.356;-1.748;2023-03-31T11:05:56;1.20;;;1.10;;
69256;SDS011;56376;53.356;-1.748;2023-03-31T11:14:00;1.40;;;1.27;;
69256;SDS011;56376;53.356;-1.748;2023-03-31T11:30:00;1.40;;;1.30;;
69256;SDS011;56376;53.356;-1.748;2023-03-31T11:32:46;1.40;;;1.30;;
69256;SDS011;56376;53.356;-1.748;2023-03-31T11:35:37;1.30;;;1.20;;
69256;SDS011;56376;53.356;-1.748;2023-03-31T11:38:18;2.13;;;1.90;;
69256;SDS011;56376;53.356;-1.748;2023-03-31T11:43:36;2.15;;;1.80;;
69256;SDS011;56376;53.356;-1.748;2023-03-31T11:46:34;1.83;;;1.60;;
69256;SDS011;56376;53.356;-1.748;2023-03-31T11:49:19;1.95;;;1.60;;
69256;SDS011;56376;53.356;-1.748;2023-03-31T11:51:58;1.50;;;1.40;;
69256;SDS011;56376;53.356;-1.748;2023-03-31T11:56:59;1.30;;;1.20;;
69256;SDS011;56376;53.356;-1.748;2023-03-31T11:59:31;0.90;;;0.90;;
69256;SDS011;56376;53.356;-1.748;2023-03-31T12:04:50;0.68;;;0.30;;
69256;SDS011;56376;53.356;-1.748;2023-03-31T12:12:28;0.20;;;0.20;;
69256;SDS011;56376;53.356;-1.748;2023-03-31T12:17:38;0.30;;;0.30;;
69256;SDS011;56376;53.356;-1.748;2023-03-31T12:20:17;0.60;;;0.45;;
69256;SDS011;56376;53.356;-1.748;2023-03-31T12:22:50;0.40;;;0.40;;
69256;SDS011;56376;53.356;-1.748;2023-03-31T12:25:20;1.17;;;0.77;;
69256;SDS011;56376;53.356;-1.748;2023-03-31T12:27:47;1.42;;;1.05;;
69256;SDS011;56376;53.356;-1.748;2023-03-31T12:33:34;0.80;;;0.80;;
69256;SDS011;56376;53.356;-1.748;2023-03-31T12:41:09;8.32;;;3.42;;
69256;SDS011;56376;53.356;-1.748;2023-03-31T12:52:20;5.90;;;3.33;;
69256;SDS011;56376;53.356;-1.748;2023-03-31T12:54:58;3.30;;;2.20;;
69256;SDS011;56376;53.356;-1.748;2023-03-31T12:57:35;3.60;;;2.08;;
69256;SDS011;56376;53.356;-1.748;2023-03-31T13:02:31;6.45;;;2.83;;
69256;SDS011;56376;53.356;-1.748;2023-03-31T13:04:57;2.47;;;1.88;;
69256;SDS011;56376;53.356;-1.748;2023-03-31T13:09:54;2.38;;;2.03;;
69256;SDS011;56376;53.356;-1.748;2023-03-31T13:12:21;1.70;;;1.60;;
69256;SDS011;56376;53.356;-1.748;2023-03-31T13:14:51;2.55;;;1.60;;
69256;SDS011;56376;53.356;-1.748;2023-03-31T13:19:48;4.25;;;2.33;;
69256;SDS011;56376;53.356;-1.748;2023-03-31T13:27:53;4.75;;;2.70;;
69256;SDS011;56376;53.356;-1.748;2023-03-31T13:33:06;8.63;;;3.50;;
69256;SDS011;56376;53.356;-1.748;2023-03-31T13:35:34;8.48;;;3.55;;
69256;SDS011;56376;53.356;-1.748;2023-03-31T13:43:40;7.03;;;3.20;;
69256;SDS011;56376;53.356;-1.748;2023-03-31T13:51:57;2.42;;;1.52;;
69256;SDS011;56376;53.356;-1.748;2023-03-31T14:05:27;2.28;;;1.70;;
69256;SDS011;56376;53.356;-1.748;2023-03-31T14:11:14;2.17;;;1.33;;
69256;SDS011;56376;53.356;-1.748;2023-03-31T14:16:37;2.47;;;1.63;;
69256;SDS011;56376;53.356;-1.748;2023-03-31T14:24:49;1.90;;;1.50;;
69256;SDS011;56376;53.356;-1.748;2023-03-31T14:27:29;2.53;;;1.92;;
69256;SDS011;56376;53.356;-1.748;2023-03-31T14:30:21;1.38;;;1.10;;
69256;SDS011;56376;53.356;-1.748;2023-03-31T14:35:38;1.40;;;1.25;;
69256;SDS011;56376;53.356;-1.748;2023-03-31T14:38:13;0.90;;;0.80;;
69256;SDS011;56376;53.356;-1.748;2023-03-31T14:40:44;1.35;;;1.23;;
69256;SDS011;56376;53.356;-1.748;2023-03-31T14:43:54;1.00;;;0.80;;
69256;SDS011;56376;53.356;-1.748;2023-03-31T14:46:05;1.42;;;1.02;;
69256;SDS011;56376;53.356;-1.748;2023-03-31T14:48:33;1.17;;;1.00;;
69256;SDS011;56376;53.356;-1.748;2023-03-31T14:51:07;1.10;;;1.00;;
69256;SDS011;56376;53.356;-1.748;2023-03-31T14:53:34;1.05;;;0.95;;
69256;SDS011;56376;53.356;-1.748;2023-03-31T14:56:22;1.88;;;1.30;;
69256;SDS011;56376;53.356;-1.748;2023-03-31T14:58:50;1.15;;;1.05;;
69256;SDS011;56376;53.356;-1.748;2023-03-31T15:01:19;1.10;;;1.00;;
69256;SDS011;56376;53.356;-1.748;2023-03-31T15:03:50;1.80;;;1.52;;
69256;SDS011;56376;53.356;-1.748;2023-03-31T15:06:17;2.65;;;1.92;;
69256;SDS011;56376;53.356;-1.748;2023-03-31T15:08:43;3.67;;;1.60;;
69256;SDS011;56376;53.356;-1.748;2023-03-31T15:11:13;2.83;;;2.25;;
69256;SDS011;56376;53.356;-1.748;2023-03-31T15:13:43;2.45;;;1.70;;
69256;SDS011;56376;53.356;-1.748;2023-03-31T15:18:57;2.78;;;2.22;;
69256;SDS011;56376;53.356;-1.748;2023-03-31T15:21:25;3.97;;;2.30;;
69256;SDS011;56376;53.356;-1.748;2023-03-31T15:23:55;2.80;;;2.22;;
69256;SDS011;56376;53.356;-1.748;2023-03-31T15:26:23;5.30;;;3.30;;
69256;SDS011;56376;53.356;-1.748;2023-03-31T15:28:56;4.10;;;3.25;;
69256;SDS011;56376;53.356;-1.748;2023-03-31T15:31:26;5.85;;;4.18;;
69256;SDS011;56376;53.356;-1.748;2023-03-31T15:33:52;5.60;;;3.35;;
69256;SDS011;56376;53.356;-1.748;2023-03-31T15:36:18;3.97;;;2.88;;
69256;SDS011;56376;53.356;-1.748;2023-03-31T15:38:45;4.35;;;3.00;;
69256;SDS011;56376;53.356;-1.748;2023-03-31T15:41:12;4.43;;;3.08;;
69256;SDS011;56376;53.356;-1.748;2023-03-31T15:49:05;5.03;;;3.60;;
69256;SDS011;56376;53.356;-1.748;2023-03-31T15:51:44;4.75;;;2.78;;
69256;SDS011;56376;53.356;-1.748;2023-03-31T15:57:04;3.55;;;2.58;;
69256;SDS011;56376;53.356;-1.748;2023-03-31T15:59:42;4.35;;;3.10;;
69256;SDS011;56376;53.356;-1.748;2023-03-31T16:02:11;5.68;;;3.42;;
69256;SDS011;56376;53.356;-1.748;2023-03-31T16:04:40;3.80;;;3.22;;
69256;SDS011;56376;53.356;-1.748;2023-03-31T16:07:25;4.38;;;3.53;;
69256;SDS011;56376;53.356;-1.748;2023-03-31T16:09:54;4.95;;;3.53;;
69256;SDS011;56376;53.356;-1.748;2023-03-31T16:14:59;4.22;;;3.63;;
69256;SDS011;56376;53.356;-1.748;2023-03-31T16:17:30;3.92;;;2.85;;
69256;SDS011;56376;53.356;-1.748;2023-03-31T16:20:03;2.13;;;1.92;;
69256;SDS011;56376;53.356;-1.748;2023-03-31T16:22:36;1.95;;;1.70;;
69256;SDS011;56376;53.356;-1.748;2023-03-31T16:25:08;5.60;;;3.80;;
69256;SDS011;56376;53.356;-1.748;2023-03-31T16:27:39;5.60;;;3.40;;
69256;SDS011;56376;53.356;-1.748;2023-03-31T16:30:19;3.55;;;2.17;;
69256;SDS011;56376;53.356;-1.748;2023-03-31T16:32:59;1.70;;;1.50;;
69256;SDS011;56376;53.356;-1.748;2023-03-31T16:35:29;1.67;;;1.23;;
69256;SDS011;56376;53.356;-1.748;2023-03-31T16:37:58;1.10;;;1.00;;
69256;SDS011;56376;53.356;-1.748;2023-03-31T16:40:26;1.55;;;1.20;;
69256;SDS011;56376;53.356;-1.748;2023-03-31T16:43:09;2.05;;;1.20;;
69256;SDS011;56376;53.356;-1.748;2023-03-31T16:45:45;1.60;;;1.50;;
69256;SDS011;56376;53.356;-1.748;2023-03-31T16:48:16;1.70;;;1.60;;
69256;SDS011;56376;53.356;-1.748;2023-03-31T16:50:46;1.65;;;1.50;;
69256;SDS011;56376;53.356;-1.748;2023-03-31T16:53:15;1.85;;;1.65;;
69256;SDS011;56376;53.356;-1.748;2023-03-31T16:55:42;1.67;;;1.58;;
69256;SDS011;56376;53.356;-1.748;2023-03-31T16:58:11;2.45;;;1.48;;
69256;SDS011;56376;53.356;-1.748;2023-03-31T17:00:36;1.50;;;1.40;;
69256;SDS011;56376;53.356;-1.748;2023-03-31T17:03:04;1.60;;;1.30;;
69256;SDS011;56376;53.356;-1.748;2023-03-31T17:05:30;1.52;;;1.13;;
69256;SDS011;56376;53.356;-1.748;2023-03-31T17:07:58;1.13;;;1.02;;
69256;SDS011;56376;53.356;-1.748;2023-03-31T17:10:24;1.67;;;1.15;;
69256;SDS011;56376;53.356;-1.748;2023-03-31T17:12:50;1.20;;;1.10;;
69256;SDS011;56376;53.356;-1.748;2023-03-31T17:15:16;2.17;;;1.58;;
69256;SDS011;56376;53.356;-1.748;2023-03-31T17:17:41;2.40;;;2.10;;
69256;SDS011;56376;53.356;-1.748;2023-03-31T17:20:07;2.22;;;1.65;;
69256;SDS011;56376;53.356;-1.748;2023-03-31T17:22:34;2.28;;;1.98;;
69256;SDS011;56376;53.356;-1.748;2023-03-31T17:25:00;3.65;;;2.22;;
69256;SDS011;56376;53.356;-1.748;2023-03-31T17:27:26;2.40;;;2.00;;
69256;SDS011;56376;53.356;-1.748;2023-03-31T17:29:53;2.83;;;2.08;;
69256;SDS011;56376;53.356;-1.748;2023-03-31T17:32:19;4.07;;;2.17;;
69256;SDS011;56376;53.356;-1.748;2023-03-31T17:34:45;2.92;;;1.80;;
69256;SDS011;56376;53.356;-1.748;2023-03-31T17:37:15;2.83;;;2.35;;
69256;SDS011;56376;53.356;-1.748;2023-03-31T17:39:41;1.90;;;1.70;;
69256;SDS011;56376;53.356;-1.748;2023-03-31T17:42:07;2.00;;;1.50;;
69256;SDS011;56376;53.356;-1.748;2023-03-31T17:44:33;3.88;;;1.40;;
69256;SDS011;56376;53.356;-1.748;2023-03-31T17:46:58;1.35;;;1.25;;
69256;SDS011;56376;53.356;-1.748;2023-03-31T17:49:24;1.70;;;1.30;;
69256;SDS011;56376;53.356;-1.748;2023-03-31T17:51:50;1.77;;;1.35;;
69256;SDS011;56376;53.356;-1.748;2023-03-31T17:54:16;1.75;;;1.40;;